createdAt,value
2023-12-31T00:02:58.032Z,48.57
2023-12-31T00:06:04.614Z,39.03
2023-12-31T00:09:11.460Z,36.77
2023-12-31T00:12:18.058Z,49.33
2023-12-31T00:15:24.718Z,42.40
2023-12-31T00:18:32.607Z,39.53
2023-12-31T00:21:44.369Z,40.53
2023-12-31T00:24:52.478Z,34.43
2023-12-31T00:27:59.148Z,33.43
2023-12-31T00:31:05.643Z,30.37
2023-12-31T00:34:13.709Z,26.07
2023-12-31T00:37:20.327Z,24.43
2023-12-31T00:40:27.057Z,33.50
2023-12-31T00:43:33.952Z,34.30
2023-12-31T00:46:40.350Z,36.47
2023-12-31T00:49:48.186Z,41.67
2023-12-31T00:52:55.107Z,47.40
2023-12-31T00:56:01.822Z,45.13
2023-12-31T00:59:09.028Z,39.73
2023-12-31T01:02:16.026Z,41.87
2023-12-31T01:05:23.849Z,33.23
2023-12-31T01:08:30.097Z,33.53
2023-12-31T01:11:36.605Z,29.37
2023-12-31T01:14:42.897Z,26.67
2023-12-31T01:17:49.129Z,26.97
2023-12-31T01:20:56.849Z,46.90
2023-12-31T01:24:04.644Z,52.63
2023-12-31T01:27:11.036Z,39.50
2023-12-31T01:30:17.650Z,33.83
2023-12-31T01:33:24.142Z,35.47
2023-12-31T01:36:32.108Z,36.07
2023-12-31T01:39:38.990Z,39.67
2023-12-31T01:42:47.219Z,43.83
2023-12-31T01:45:53.747Z,38.63
2023-12-31T01:49:00.948Z,49.00
2023-12-31T01:52:09.165Z,43.20
2023-12-31T01:55:17.065Z,47.10
2023-12-31T01:58:24.590Z,45.97
2023-12-31T02:01:32.274Z,46.23
2023-12-31T02:04:39.065Z,42.40
2023-12-31T02:07:47.145Z,39.73
2023-12-31T02:10:54.141Z,34.70
2023-12-31T02:14:00.741Z,34.77
2023-12-31T02:17:07.399Z,29.93
2023-12-31T02:20:14.248Z,32.13
2023-12-31T02:23:22.318Z,33.13
2023-12-31T02:26:31.420Z,29.17
2023-12-31T02:29:38.037Z,28.57
2023-12-31T02:32:44.689Z,27.23
2023-12-31T02:35:51.368Z,29.50
2023-12-31T02:38:57.893Z,30.87
2023-12-31T02:42:06.969Z,38.53
2023-12-31T02:45:13.481Z,41.73
2023-12-31T02:48:20.417Z,34.93
2023-12-31T02:51:27.031Z,29.63
2023-12-31T02:54:33.358Z,27.30
2023-12-31T02:57:41.510Z,27.83
2023-12-31T03:00:47.892Z,25.90
2023-12-31T03:03:54.652Z,28.60
2023-12-31T03:07:01.048Z,27.90
2023-12-31T03:10:08.952Z,29.77
2023-12-31T03:13:17.604Z,29.30
2023-12-31T03:16:26.323Z,31.60
2023-12-31T03:19:37.118Z,33.17
2023-12-31T03:22:43.362Z,34.87
2023-12-31T03:25:49.703Z,37.87
2023-12-31T03:28:57.682Z,49.17
2023-12-31T03:32:04.188Z,50.40
2023-12-31T03:35:10.679Z,38.80
2023-12-31T03:38:17.153Z,33.07
2023-12-31T03:41:23.525Z,32.83
2023-12-31T03:44:31.410Z,32.47
2023-12-31T03:47:38.259Z,32.20
2023-12-31T03:50:44.736Z,32.07
2023-12-31T03:53:51.614Z,36.07
2023-12-31T03:56:58.040Z,39.57
2023-12-31T04:00:07.323Z,40.43
2023-12-31T04:03:13.860Z,39.37
2023-12-31T04:06:20.081Z,39.17
2023-12-31T04:09:26.321Z,42.10
2023-12-31T04:12:32.743Z,42.87
2023-12-31T04:15:40.430Z,33.20
2023-12-31T04:18:47.016Z,29.63
2023-12-31T04:21:53.860Z,30.17
2023-12-31T04:25:00.482Z,29.07
2023-12-31T04:28:07.111Z,35.50
2023-12-31T04:31:15.239Z,31.33
2023-12-31T04:34:21.962Z,29.87
2023-12-31T04:37:28.517Z,30.57
2023-12-31T04:40:35.303Z,35.57
2023-12-31T04:43:41.827Z,33.37
2023-12-31T04:46:49.985Z,32.07
2023-12-31T04:49:56.755Z,32.20
2023-12-31T04:53:03.729Z,35.57
2023-12-31T04:56:20.612Z,41.67
2023-12-31T04:59:26.901Z,36.90
2023-12-31T05:02:34.846Z,41.13
2023-12-31T05:05:41.733Z,38.90
2023-12-31T05:08:48.803Z,38.83
2023-12-31T05:11:55.502Z,37.97
2023-12-31T05:15:02.122Z,36.10
2023-12-31T05:18:09.860Z,36.03
2023-12-31T05:21:16.561Z,41.80
2023-12-31T05:24:23.829Z,42.67
2023-12-31T05:27:30.111Z,40.57
2023-12-31T05:30:36.861Z,39.17
2023-12-31T05:33:45.310Z,49.07
2023-12-31T05:36:52.889Z,44.90
2023-12-31T05:39:59.319Z,51.70
2023-12-31T05:43:06.486Z,52.80
2023-12-31T05:46:13.006Z,48.30
2023-12-31T05:49:21.081Z,57.90
2023-12-31T05:52:27.867Z,66.27
2023-12-31T05:55:34.455Z,70.10
2023-12-31T05:58:43.688Z,75.70
2023-12-31T06:01:50.932Z,41.57
2023-12-31T06:04:59.219Z,53.00
2023-12-31T06:08:05.842Z,53.23
2023-12-31T06:11:12.417Z,59.07
2023-12-31T06:14:18.512Z,57.67
2023-12-31T06:17:24.849Z,61.23
2023-12-31T06:20:32.916Z,69.27
2023-12-31T06:23:39.795Z,76.20
2023-12-31T06:26:46.517Z,61.77
2023-12-31T06:29:53.705Z,61.67
2023-12-31T06:33:00.090Z,54.60
2023-12-31T06:36:09.319Z,56.63
2023-12-31T06:39:17.013Z,56.47
2023-12-31T06:45:47.885Z,73.23
2023-12-31T06:48:54.365Z,77.60
2023-12-31T06:52:02.371Z,113.23
2023-12-31T06:55:11.911Z,104.13
2023-12-31T06:58:18.636Z,109.40
2023-12-31T07:01:25.487Z,103.90
2023-12-31T07:04:32.790Z,94.43
2023-12-31T07:07:41.975Z,57.47
2023-12-31T07:10:48.796Z,79.07
2023-12-31T07:13:56.026Z,59.87
2023-12-31T07:17:03.604Z,54.90
2023-12-31T07:20:10.889Z,57.87
2023-12-31T07:23:19.226Z,125.20
2023-12-31T07:26:27.188Z,95.13
2023-12-31T07:29:34.280Z,70.37
2023-12-31T07:32:40.910Z,72.90
2023-12-31T07:35:47.350Z,90.53
2023-12-31T07:38:55.938Z,51.43
2023-12-31T07:42:02.437Z,72.67
2023-12-31T07:45:10.590Z,59.73
2023-12-31T07:48:17.260Z,73.87
2023-12-31T07:51:23.739Z,88.07
2023-12-31T07:54:31.930Z,78.43
2023-12-31T07:57:38.519Z,67.40
2023-12-31T08:00:45.050Z,84.10
2023-12-31T08:03:52.257Z,73.17
2023-12-31T08:06:58.549Z,73.40
2023-12-31T08:10:07.031Z,73.57
2023-12-31T08:13:13.731Z,71.20
2023-12-31T08:16:20.780Z,50.73
2023-12-31T08:19:27.765Z,54.67
2023-12-31T08:22:34.307Z,70.90
2023-12-31T08:25:43.101Z,66.63
2023-12-31T08:28:49.595Z,57.47
2023-12-31T08:31:57.390Z,32.33
2023-12-31T08:35:03.817Z,35.27
2023-12-31T08:38:10.238Z,36.37
2023-12-31T08:41:17.909Z,42.63
2023-12-31T08:44:24.764Z,56.43
2023-12-31T08:47:30.965Z,35.70
2023-12-31T08:50:37.520Z,41.23
2023-12-31T08:53:44.868Z,38.93
2023-12-31T08:56:52.837Z,44.07
2023-12-31T08:59:58.978Z,48.07
2023-12-31T09:03:05.890Z,41.37
2023-12-31T09:06:12.978Z,69.87
2023-12-31T09:09:19.263Z,61.83
2023-12-31T09:12:27.602Z,65.93
2023-12-31T09:15:33.931Z,43.87
2023-12-31T09:18:40.502Z,56.33
2023-12-31T09:21:47.132Z,54.00
2023-12-31T09:24:54.442Z,55.13
2023-12-31T09:28:02.102Z,43.80
2023-12-31T09:31:08.577Z,48.43
2023-12-31T09:34:15.165Z,46.33
2023-12-31T09:37:22.325Z,44.53
2023-12-31T09:40:28.895Z,63.30
2023-12-31T09:43:39.853Z,62.23
2023-12-31T09:47:06.050Z,58.33
2023-12-31T09:50:17.481Z,64.23
2023-12-31T09:53:25.808Z,61.93
2023-12-31T09:56:34.774Z,61.37
2023-12-31T09:59:43.317Z,56.20
2023-12-31T10:02:52.679Z,57.57
2023-12-31T10:05:59.739Z,64.37
2023-12-31T10:09:08.622Z,51.47
2023-12-31T10:12:15.886Z,45.57
2023-12-31T10:15:23.982Z,43.53
2023-12-31T10:18:32.324Z,43.77
2023-12-31T10:21:39.126Z,42.67
2023-12-31T10:24:46.785Z,48.70
2023-12-31T10:27:53.680Z,55.63
2023-12-31T10:31:02.220Z,60.40
2023-12-31T10:34:19.097Z,87.37
2023-12-31T10:37:25.858Z,96.60
2023-12-31T10:40:32.289Z,78.30
2023-12-31T10:43:42.223Z,46.30
2023-12-31T10:46:54.814Z,56.63
2023-12-31T10:50:02.237Z,75.17
2023-12-31T10:53:13.232Z,79.67
2023-12-31T10:56:20.328Z,81.80
2023-12-31T10:59:28.476Z,85.77
2023-12-31T11:02:36.582Z,88.93
2023-12-31T11:05:45.541Z,107.73
2023-12-31T11:08:52.236Z,93.90
2023-12-31T11:11:58.810Z,88.80
2023-12-31T11:15:10.472Z,103.10
2023-12-31T11:18:40.461Z,81.13
2023-12-31T11:22:03.836Z,81.83
2023-12-31T11:25:10.215Z,80.97
2023-12-31T11:28:18.692Z,101.47
2023-12-31T11:31:27.091Z,77.10
2023-12-31T11:34:41.096Z,75.70
2023-12-31T11:37:47.543Z,56.90
2023-12-31T11:40:56.368Z,45.00
2023-12-31T11:44:03.041Z,38.70
2023-12-31T11:47:14.812Z,31.53
2023-12-31T11:50:25.841Z,18.37
2023-12-31T11:53:50.088Z,17.67
2023-12-31T11:56:56.979Z,21.50
2023-12-31T12:00:08.067Z,31.47
2023-12-31T12:03:16.190Z,28.50
2023-12-31T12:06:25.737Z,19.47
2023-12-31T12:09:33.022Z,24.53
2023-12-31T12:12:39.656Z,24.37
2023-12-31T12:15:46.234Z,38.37
2023-12-31T12:19:00.686Z,24.30
2023-12-31T12:22:08.908Z,22.47
2023-12-31T12:25:15.465Z,21.33
2023-12-31T12:28:22.507Z,20.07
2023-12-31T12:31:36.843Z,22.53
2023-12-31T12:34:47.519Z,29.47
2023-12-31T12:37:55.826Z,24.23
2023-12-31T12:41:03.954Z,30.73
2023-12-31T12:44:11.652Z,26.70
2023-12-31T12:47:19.054Z,34.37
2023-12-31T12:50:27.659Z,38.47
2023-12-31T12:53:35.278Z,34.57
2023-12-31T12:56:42.030Z,35.03
2023-12-31T12:59:48.645Z,38.63
2023-12-31T13:02:55.251Z,34.43
2023-12-31T13:06:02.550Z,38.43
2023-12-31T13:09:12.623Z,30.17
2023-12-31T13:12:19.543Z,22.27
2023-12-31T13:15:25.835Z,22.47
2023-12-31T13:18:32.150Z,24.33
2023-12-31T13:21:39.502Z,22.60
2023-12-31T13:24:47.105Z,28.27
2023-12-31T13:27:53.706Z,33.43
2023-12-31T13:31:02.225Z,40.17
2023-12-31T13:34:10.772Z,41.93
2023-12-31T13:37:17.371Z,31.10
2023-12-31T13:40:25.459Z,18.53
2023-12-31T13:43:32.136Z,25.90
2023-12-31T13:46:38.562Z,31.50
2023-12-31T13:49:45.148Z,33.03
2023-12-31T13:52:51.823Z,36.60
2023-12-31T13:55:59.972Z,44.17
2023-12-31T13:59:06.742Z,30.90
2023-12-31T14:02:14.050Z,23.77
2023-12-31T14:05:20.374Z,29.77
2023-12-31T14:08:26.875Z,31.87
2023-12-31T14:11:34.978Z,53.33
2023-12-31T14:14:41.747Z,32.00
2023-12-31T14:17:48.362Z,28.13
2023-12-31T14:20:56.363Z,41.60
2023-12-31T14:24:03.678Z,66.43
2023-12-31T14:27:11.732Z,74.23
2023-12-31T14:30:18.552Z,74.67
2023-12-31T14:33:25.285Z,60.53
2023-12-31T14:36:33.040Z,58.97
2023-12-31T14:39:39.731Z,56.27
2023-12-31T14:42:47.938Z,62.00
2023-12-31T14:45:54.552Z,55.67
2023-12-31T14:49:04.153Z,49.10
2023-12-31T14:52:12.642Z,47.97
2023-12-31T14:55:21.063Z,48.07
2023-12-31T14:58:29.122Z,52.60
2023-12-31T15:01:35.789Z,52.83
2023-12-31T15:04:42.693Z,60.67
2023-12-31T15:07:49.499Z,41.17
2023-12-31T15:10:56.178Z,36.73
2023-12-31T15:14:05.489Z,49.43
2023-12-31T15:17:12.476Z,44.60
2023-12-31T15:20:19.070Z,42.37
2023-12-31T15:23:25.742Z,46.57
2023-12-31T15:26:33.261Z,90.93
2023-12-31T15:29:41.565Z,161.87
2023-12-31T15:32:48.333Z,137.03
2023-12-31T15:35:54.939Z,547.13
2023-12-31T15:39:01.843Z,173.37
2023-12-31T15:42:08.594Z,58.13
2023-12-31T15:45:16.720Z,71.87
2023-12-31T15:48:23.605Z,78.67
2023-12-31T15:51:30.893Z,82.80
2023-12-31T15:54:37.506Z,41.00
2023-12-31T15:57:43.852Z,67.13
2023-12-31T16:00:51.940Z,48.20
2023-12-31T16:03:58.326Z,59.43
2023-12-31T16:07:04.736Z,69.97
2023-12-31T16:10:11.939Z,67.30
2023-12-31T16:13:18.622Z,64.17
2023-12-31T16:16:26.732Z,64.30
2023-12-31T16:19:33.362Z,58.87
2023-12-31T16:22:39.857Z,80.07
2023-12-31T16:25:46.259Z,57.13
2023-12-31T16:28:53.349Z,61.27
2023-12-31T16:32:01.104Z,61.97
2023-12-31T16:35:10.711Z,48.03
2023-12-31T16:38:17.390Z,33.47
2023-12-31T16:41:25.778Z,27.90
2023-12-31T16:44:32.523Z,37.07
2023-12-31T16:47:41.598Z,31.07
2023-12-31T16:50:48.091Z,35.57
2023-12-31T16:53:59.757Z,39.27
2023-12-31T16:57:06.719Z,40.17
2023-12-31T17:00:13.927Z,40.80
2023-12-31T17:03:21.914Z,38.57
2023-12-31T17:06:29.223Z,39.23
2023-12-31T17:09:36.543Z,42.87
2023-12-31T17:12:43.221Z,46.43
2023-12-31T17:15:49.728Z,66.83
2023-12-31T17:18:57.881Z,101.77
2023-12-31T17:22:04.494Z,69.23
2023-12-31T17:25:11.458Z,63.27
2023-12-31T17:28:18.002Z,63.00
2023-12-31T17:31:24.929Z,82.90
2023-12-31T17:34:32.894Z,68.80
2023-12-31T17:37:39.729Z,95.47
2023-12-31T17:40:46.370Z,83.17
2023-12-31T17:43:53.330Z,77.03
2023-12-31T17:47:00.329Z,77.30
2023-12-31T17:50:09.394Z,85.10
2023-12-31T17:53:15.830Z,81.17
2023-12-31T17:56:22.791Z,78.43
2023-12-31T17:59:29.616Z,73.53
2023-12-31T18:02:36.097Z,67.47
2023-12-31T18:05:44.315Z,67.17
2023-12-31T18:08:50.700Z,48.63
2023-12-31T18:11:57.219Z,76.03
2023-12-31T18:15:04.002Z,72.33
2023-12-31T18:18:11.093Z,77.10
2023-12-31T18:21:19.202Z,66.23
2023-12-31T18:24:25.802Z,67.73
2023-12-31T18:27:32.231Z,76.37
2023-12-31T18:30:44.826Z,62.70
2023-12-31T18:33:54.194Z,64.97
2023-12-31T18:37:02.405Z,61.87
2023-12-31T18:40:10.400Z,55.43
2023-12-31T18:43:16.759Z,71.07
2023-12-31T18:46:25.666Z,73.87
2023-12-31T18:49:32.605Z,85.40
2023-12-31T18:52:40.503Z,66.63
2023-12-31T18:55:47.091Z,97.67
2023-12-31T18:58:53.672Z,86.93
2023-12-31T19:02:00.252Z,77.83
2023-12-31T19:05:07.152Z,67.93
2023-12-31T19:08:15.935Z,39.73
2023-12-31T19:11:23.848Z,64.67
2023-12-31T19:14:30.512Z,58.10
2023-12-31T19:17:40.034Z,50.73
2023-12-31T19:20:46.758Z,51.77
2023-12-31T19:23:54.998Z,101.77
2023-12-31T19:27:02.316Z,80.73
2023-12-31T19:30:10.717Z,52.47
2023-12-31T19:33:18.267Z,69.03
2023-12-31T19:36:24.781Z,96.60
2023-12-31T19:39:34.561Z,66.70
2023-12-31T19:42:43.528Z,119.73
2023-12-31T19:45:50.054Z,82.80
2023-12-31T19:48:56.902Z,91.43
2023-12-31T19:52:03.928Z,91.00
2023-12-31T19:55:12.457Z,91.77
2023-12-31T19:58:18.929Z,91.27
2023-12-31T20:01:25.649Z,64.00
2023-12-31T20:04:32.869Z,71.37
2023-12-31T20:07:39.525Z,71.90
2023-12-31T20:10:47.809Z,58.80
2023-12-31T20:13:54.334Z,85.40
2023-12-31T20:17:00.990Z,91.63
2023-12-31T20:20:08.495Z,93.27
2023-12-31T20:23:15.373Z,106.93
2023-12-31T20:26:23.145Z,68.83
2023-12-31T20:29:30.072Z,52.33
2023-12-31T20:32:37.278Z,77.27
2023-12-31T20:35:43.962Z,85.17
2023-12-31T20:38:50.508Z,88.17
2023-12-31T20:41:58.553Z,77.63
2023-12-31T20:45:05.590Z,73.13
2023-12-31T20:48:12.225Z,93.60
2023-12-31T20:51:20.552Z,93.07
2023-12-31T20:54:27.142Z,56.67
2023-12-31T20:57:35.072Z,67.20
2023-12-31T21:00:42.270Z,63.57
2023-12-31T21:03:48.679Z,72.73
2023-12-31T21:06:56.551Z,75.47
2023-12-31T21:10:05.927Z,85.47
2023-12-31T21:13:15.968Z,83.67
2023-12-31T21:16:22.619Z,78.40
2023-12-31T21:19:29.085Z,74.90
2023-12-31T21:22:35.924Z,59.17
2023-12-31T21:25:45.480Z,28.90
2023-12-31T21:28:56.142Z,39.57
2023-12-31T21:32:02.742Z,30.50
2023-12-31T21:35:10.096Z,29.57
2023-12-31T21:38:17.076Z,68.67
2023-12-31T21:41:26.082Z,40.67
2023-12-31T21:44:33.659Z,37.67
2023-12-31T21:47:39.948Z,36.80
2023-12-31T21:50:46.508Z,41.23
2023-12-31T21:53:52.810Z,61.03
2023-12-31T21:57:03.401Z,40.50
2023-12-31T22:00:14.336Z,87.47
2023-12-31T22:03:22.755Z,49.63
2023-12-31T22:06:29.777Z,54.47
2023-12-31T22:09:36.322Z,153.30
2023-12-31T22:12:43.241Z,113.77
2023-12-31T22:15:51.925Z,130.37
2023-12-31T22:18:58.305Z,162.00
2023-12-31T22:22:05.006Z,139.57
2023-12-31T22:25:11.477Z,168.87
2023-12-31T22:28:17.921Z,141.23
2023-12-31T22:31:25.877Z,106.33
2023-12-31T22:34:37.639Z,83.00
2023-12-31T22:37:45.145Z,57.27
2023-12-31T22:40:51.646Z,58.03
2023-12-31T22:43:58.696Z,72.33
2023-12-31T22:47:06.455Z,71.40
2023-12-31T22:50:14.087Z,54.70
2023-12-31T22:53:20.757Z,64.73
2023-12-31T22:56:27.019Z,59.37
2023-12-31T22:59:33.547Z,40.30
2023-12-31T23:02:41.891Z,73.63
2023-12-31T23:05:48.305Z,99.37
2023-12-31T23:08:54.765Z,86.43
2023-12-31T23:12:01.458Z,82.33
2023-12-31T23:15:09.830Z,90.03
2023-12-31T23:18:17.955Z,72.77
2023-12-31T23:21:24.818Z,72.37
2023-12-31T23:24:31.148Z,70.17
2023-12-31T23:27:37.510Z,75.30
2023-12-31T23:30:43.999Z,66.53
2023-12-31T23:33:51.889Z,58.57
2023-12-31T23:37:05.064Z,44.27
2023-12-31T23:40:13.977Z,41.83
2023-12-31T23:43:20.726Z,38.83
2023-12-31T23:46:27.406Z,34.73
2023-12-31T23:49:35.512Z,33.57
2023-12-31T23:52:42.156Z,36.43
2023-12-31T23:55:48.624Z,39.27
2023-12-31T23:58:54.844Z,35.13
